createdAt,value
2023-04-30T00:02:24.204Z,26.57
2023-04-30T00:04:52.471Z,25.53
2023-04-30T00:07:22.091Z,25.43
2023-04-30T00:09:51.380Z,25.83
2023-04-30T00:12:19.872Z,26.73
2023-04-30T00:14:49.441Z,25.97
2023-04-30T00:17:17.692Z,26.63
2023-04-30T00:19:46.036Z,25.67
2023-04-30T00:22:14.436Z,27.80
2023-04-30T00:24:44.042Z,27.17
2023-04-30T00:27:12.279Z,26.83
2023-04-30T00:29:42.465Z,25.30
2023-04-30T00:32:10.712Z,23.07
2023-04-30T00:34:39.053Z,22.60
2023-04-30T00:37:07.264Z,22.03
2023-04-30T00:39:38.109Z,23.97
2023-04-30T00:42:08.545Z,23.03
2023-04-30T00:44:38.292Z,22.93
2023-04-30T00:47:06.652Z,24.07
2023-04-30T00:49:35.334Z,24.17
2023-04-30T00:52:03.617Z,23.90
2023-04-30T00:54:31.898Z,24.63
2023-04-30T00:57:00.368Z,24.50
2023-04-30T00:59:31.240Z,24.20
2023-04-30T01:04:59.307Z,21.50
2023-04-30T01:07:28.485Z,23.47
2023-04-30T01:09:56.955Z,23.97
2023-04-30T01:12:40.712Z,24.80
2023-04-30T01:15:16.429Z,23.97
2023-04-30T01:17:54.254Z,25.50
2023-04-30T01:20:23.687Z,24.10
2023-04-30T01:22:56.779Z,24.57
2023-04-30T01:25:43.286Z,25.03
2023-04-30T01:28:16.100Z,24.47
2023-04-30T01:30:46.199Z,24.33
2023-04-30T01:33:14.886Z,24.77
2023-04-30T01:35:59.965Z,24.53
2023-04-30T01:38:41.312Z,24.30
2023-04-30T01:41:16.227Z,23.50
2023-04-30T01:43:56.313Z,23.03
2023-04-30T01:46:28.466Z,23.93
2023-04-30T01:49:10.903Z,24.70
2023-04-30T01:51:42.652Z,24.50
2023-04-30T01:54:18.282Z,22.10
2023-04-30T01:56:56.593Z,22.90
2023-04-30T01:59:26.593Z,23.73
2023-04-30T02:01:57.458Z,23.77
2023-04-30T02:04:25.800Z,25.13
2023-04-30T02:06:54.255Z,25.43
2023-04-30T02:09:24.266Z,25.83
2023-04-30T02:11:52.624Z,24.40
2023-04-30T02:14:20.736Z,24.20
2023-04-30T02:16:50.318Z,23.70
2023-04-30T02:19:18.701Z,22.00
2023-04-30T02:21:46.864Z,22.53
2023-04-30T02:24:15.086Z,22.47
2023-04-30T02:26:43.382Z,20.20
2023-04-30T02:29:11.442Z,20.67
2023-04-30T02:31:39.729Z,21.83
2023-04-30T02:34:09.429Z,21.63
2023-04-30T02:36:38.040Z,21.07
2023-04-30T02:39:06.305Z,21.20
2023-04-30T02:41:34.672Z,21.03
2023-04-30T02:44:03.368Z,21.13
2023-04-30T02:46:31.733Z,21.43
2023-04-30T02:49:00.101Z,20.77
2023-04-30T02:51:29.827Z,21.03
2023-04-30T02:53:58.129Z,19.53
2023-04-30T02:56:26.310Z,19.80
2023-04-30T02:58:54.819Z,20.00
2023-04-30T03:01:23.279Z,21.07
2023-04-30T03:03:51.432Z,21.67
2023-04-30T03:06:19.673Z,21.27
2023-04-30T03:08:49.508Z,20.67
2023-04-30T03:11:17.627Z,20.57
2023-04-30T03:13:46.428Z,21.43
2023-04-30T03:16:14.635Z,20.50
2023-04-30T03:18:42.857Z,19.80
2023-04-30T03:21:11.150Z,20.43
2023-04-30T03:23:39.485Z,18.67
2023-04-30T03:26:09.590Z,17.97
2023-04-30T03:28:37.900Z,16.70
2023-04-30T03:31:06.517Z,17.83
2023-04-30T03:33:34.951Z,17.60
2023-04-30T03:36:03.198Z,18.40
2023-04-30T03:38:31.581Z,18.33
2023-04-30T03:40:59.694Z,16.90
2023-04-30T03:43:29.439Z,17.43
2023-04-30T03:45:57.664Z,17.60
2023-04-30T03:48:25.939Z,17.77
2023-04-30T03:50:54.279Z,19.33
2023-04-30T03:53:22.550Z,18.10
2023-04-30T03:55:51.027Z,17.93
2023-04-30T03:58:19.428Z,18.80
2023-04-30T04:00:49.433Z,17.63
2023-04-30T04:03:18.102Z,18.17
2023-04-30T04:05:46.684Z,16.70
2023-04-30T04:08:16.397Z,17.63
2023-04-30T04:10:44.947Z,15.67
2023-04-30T04:13:13.287Z,17.40
2023-04-30T04:15:41.832Z,15.97
2023-04-30T04:18:11.468Z,17.30
2023-04-30T04:20:39.819Z,17.77
2023-04-30T04:23:08.098Z,17.40
2023-04-30T04:25:36.377Z,16.97
2023-04-30T04:28:04.920Z,17.43
2023-04-30T04:30:34.013Z,16.87
2023-04-30T04:33:02.396Z,16.43
2023-04-30T04:35:32.218Z,16.17
2023-04-30T04:38:00.402Z,17.33
2023-04-30T04:40:29.906Z,16.90
2023-04-30T04:43:00.072Z,16.03
2023-04-30T04:45:28.654Z,16.80
2023-04-30T04:47:56.826Z,15.67
2023-04-30T04:50:25.844Z,16.37
2023-04-30T04:52:55.524Z,16.03
2023-04-30T04:55:23.671Z,16.30
2023-04-30T04:57:51.879Z,17.47
2023-04-30T05:00:22.322Z,16.43
2023-04-30T05:02:50.681Z,16.13
2023-04-30T05:05:19.141Z,17.10
2023-04-30T05:07:47.460Z,16.43
2023-04-30T05:10:17.080Z,16.50
2023-04-30T05:12:45.289Z,16.70
2023-04-30T05:15:13.608Z,17.07
2023-04-30T05:17:41.971Z,16.33
2023-04-30T05:20:12.651Z,15.90
2023-04-30T05:22:40.814Z,16.97
2023-04-30T05:25:09.930Z,16.17
2023-04-30T05:27:39.545Z,17.17
2023-04-30T05:30:09.659Z,16.67
2023-04-30T05:32:38.103Z,16.40
2023-04-30T05:35:06.989Z,17.77
2023-04-30T05:37:35.334Z,15.87
2023-04-30T05:40:03.597Z,15.77
2023-04-30T05:42:31.683Z,16.07
2023-04-30T05:45:01.345Z,15.77
2023-04-30T05:47:29.698Z,15.10
2023-04-30T05:49:57.937Z,14.83
2023-04-30T05:52:26.459Z,13.90
2023-04-30T05:54:55.058Z,15.10
2023-04-30T05:57:23.394Z,14.57
2023-04-30T05:59:51.874Z,14.73
2023-04-30T06:02:21.886Z,14.27
2023-04-30T06:04:50.150Z,14.43
2023-04-30T06:07:18.408Z,14.53
2023-04-30T06:09:46.856Z,14.03
2023-04-30T06:12:14.977Z,14.30
2023-04-30T06:14:45.682Z,14.03
2023-04-30T06:17:13.991Z,14.00
2023-04-30T06:19:43.492Z,13.03
2023-04-30T06:22:11.873Z,14.73
2023-04-30T06:24:40.171Z,13.87
2023-04-30T06:27:08.297Z,13.77
2023-04-30T06:29:36.624Z,13.10
2023-04-30T06:32:06.415Z,12.50
2023-04-30T06:34:37.085Z,14.30
2023-04-30T06:37:06.921Z,13.30
2023-04-30T06:39:35.064Z,14.03
2023-04-30T06:42:03.959Z,13.70
2023-04-30T06:44:33.349Z,13.47
2023-04-30T06:47:01.472Z,13.47
2023-04-30T06:49:29.675Z,13.40
2023-04-30T06:51:58.595Z,13.17
2023-04-30T06:54:28.133Z,13.13
2023-04-30T06:56:56.309Z,13.70
2023-04-30T06:59:24.886Z,13.83
2023-04-30T07:01:53.659Z,13.60
2023-04-30T07:04:21.968Z,13.57
2023-04-30T07:06:51.151Z,14.53
2023-04-30T07:09:19.253Z,13.57
2023-04-30T07:11:49.063Z,13.20
2023-04-30T07:14:17.372Z,14.03
2023-04-30T07:16:46.559Z,14.23
2023-04-30T07:19:14.714Z,13.60
2023-04-30T07:21:43.116Z,13.77
2023-04-30T07:24:11.242Z,13.33
2023-04-30T07:26:39.424Z,14.53
2023-04-30T07:29:09.220Z,14.50
2023-04-30T07:31:37.374Z,13.60
2023-04-30T07:34:05.515Z,14.53
2023-04-30T07:36:33.817Z,13.73
2023-04-30T07:39:02.206Z,14.27
2023-04-30T07:41:30.374Z,14.00
2023-04-30T07:43:59.912Z,13.83
2023-04-30T07:46:29.637Z,13.83
2023-04-30T07:48:57.859Z,14.13
2023-04-30T07:51:27.038Z,14.43
2023-04-30T07:53:55.222Z,14.07
2023-04-30T07:56:23.349Z,14.47
2023-04-30T07:58:51.938Z,13.53
2023-04-30T08:01:20.160Z,14.10
2023-04-30T08:03:49.850Z,14.57
2023-04-30T08:06:18.665Z,14.03
2023-04-30T08:08:48.200Z,14.00
2023-04-30T08:11:17.113Z,13.37
2023-04-30T08:13:45.469Z,13.20
2023-04-30T08:16:13.765Z,15.10
2023-04-30T08:18:44.763Z,15.63
2023-04-30T08:21:14.937Z,14.17
2023-04-30T08:23:43.119Z,13.90
2023-04-30T08:26:11.369Z,14.47
2023-04-30T08:28:39.842Z,13.63
2023-04-30T08:31:08.346Z,14.40
2023-04-30T08:33:36.745Z,14.17
2023-04-30T08:36:05.699Z,14.33
2023-04-30T08:38:35.351Z,13.50
2023-04-30T08:41:10.365Z,13.47
2023-04-30T08:43:38.825Z,13.77
2023-04-30T08:46:07.877Z,12.93
2023-04-30T08:48:36.833Z,12.43
2023-04-30T08:51:05.938Z,11.57
2023-04-30T08:53:38.270Z,12.27
2023-04-30T08:56:07.464Z,12.40
2023-04-30T08:58:36.173Z,11.23
2023-04-30T09:01:07.928Z,12.80
2023-04-30T09:03:36.261Z,11.57
2023-04-30T09:06:04.602Z,11.60
2023-04-30T09:08:48.209Z,12.70
2023-04-30T09:11:27.703Z,11.52
2023-04-30T09:13:57.732Z,11.02
2023-04-30T09:16:28.114Z,11.23
2023-04-30T09:18:56.808Z,11.25
2023-04-30T09:21:33.096Z,10.88
2023-04-30T09:24:04.863Z,11.05
2023-04-30T09:26:34.719Z,10.50
2023-04-30T09:29:08.067Z,10.20
2023-04-30T09:31:36.828Z,10.57
2023-04-30T09:34:06.164Z,11.48
2023-04-30T09:36:35.280Z,10.63
2023-04-30T09:39:15.621Z,9.90
2023-04-30T09:41:44.889Z,10.43
2023-04-30T09:44:28.666Z,10.85
2023-04-30T09:46:58.703Z,9.23
2023-04-30T09:49:27.410Z,10.13
2023-04-30T09:51:57.189Z,9.30
2023-04-30T09:54:28.880Z,9.18
2023-04-30T09:56:58.224Z,9.07
2023-04-30T09:59:31.849Z,5.97
2023-04-30T10:02:01.728Z,8.77
2023-04-30T10:04:35.145Z,8.48
2023-04-30T10:07:07.445Z,8.52
2023-04-30T10:09:43.656Z,7.70
2023-04-30T10:12:16.975Z,8.80
2023-04-30T10:14:53.308Z,7.50
2023-04-30T10:17:25.266Z,8.20
2023-04-30T10:19:56.625Z,7.60
2023-04-30T10:22:25.202Z,8.30
2023-04-30T10:24:55.810Z,8.63
2023-04-30T10:27:24.194Z,7.68
2023-04-30T10:29:53.341Z,8.65
2023-04-30T10:32:24.143Z,7.90
2023-04-30T10:34:59.751Z,7.73
2023-04-30T10:37:33.657Z,8.10
2023-04-30T10:40:05.088Z,8.33
2023-04-30T10:42:38.872Z,8.27
2023-04-30T10:45:12.605Z,8.60
2023-04-30T10:47:43.922Z,7.60
2023-04-30T10:50:12.943Z,7.73
2023-04-30T10:52:41.635Z,7.83
2023-04-30T10:55:11.719Z,6.80
2023-04-30T10:57:44.104Z,6.87
2023-04-30T11:00:26.009Z,7.97
2023-04-30T11:02:58.904Z,8.27
2023-04-30T11:05:38.749Z,7.73
2023-04-30T11:08:12.104Z,6.97
2023-04-30T11:10:59.073Z,6.83
2023-04-30T11:13:28.407Z,6.83
2023-04-30T11:16:03.599Z,6.33
2023-04-30T11:18:32.521Z,7.03
2023-04-30T11:21:00.690Z,6.40
2023-04-30T11:23:39.386Z,7.13
2023-04-30T11:26:11.915Z,6.53
2023-04-30T11:28:40.147Z,7.20
2023-04-30T11:31:08.453Z,6.80
2023-04-30T11:33:36.871Z,7.10
2023-04-30T11:36:05.825Z,6.70
2023-04-30T11:38:37.106Z,6.63
2023-04-30T11:41:05.849Z,6.10
2023-04-30T11:43:36.352Z,6.33
2023-04-30T11:46:10.326Z,6.47
2023-04-30T11:48:40.481Z,6.33
2023-04-30T11:51:16.765Z,6.07
2023-04-30T11:53:47.472Z,5.17
2023-04-30T11:56:15.825Z,5.90
2023-04-30T11:58:48.006Z,6.00
2023-04-30T12:01:16.963Z,5.90
2023-04-30T12:03:46.410Z,5.50
2023-04-30T12:06:24.072Z,6.03
2023-04-30T12:08:54.914Z,6.03
2023-04-30T12:11:25.386Z,4.93
2023-04-30T12:13:57.656Z,5.20
2023-04-30T12:16:26.810Z,5.67
2023-04-30T12:18:55.938Z,5.20
2023-04-30T12:21:24.497Z,4.30
2023-04-30T12:23:52.738Z,4.40
2023-04-30T12:26:21.096Z,4.30
2023-04-30T12:28:49.910Z,4.20
2023-04-30T12:31:20.289Z,4.37
2023-04-30T12:33:58.136Z,4.17
2023-04-30T12:36:32.891Z,5.30
2023-04-30T12:39:08.705Z,5.30
2023-04-30T12:41:39.592Z,4.67
2023-04-30T12:44:21.440Z,5.00
2023-04-30T12:46:53.723Z,5.07
2023-04-30T12:49:29.418Z,5.13
2023-04-30T12:52:02.384Z,5.20
2023-04-30T12:54:32.680Z,5.17
2023-04-30T12:57:02.707Z,4.80
2023-04-30T12:59:31.488Z,5.03
2023-04-30T13:02:09.393Z,5.03
2023-04-30T13:04:38.637Z,4.33
2023-04-30T13:07:06.939Z,4.57
2023-04-30T13:09:35.625Z,4.60
2023-04-30T13:12:05.198Z,3.77
2023-04-30T13:14:33.931Z,4.33
2023-04-30T13:17:05.007Z,3.63
2023-04-30T13:19:35.140Z,4.10
2023-04-30T13:22:03.386Z,3.87
2023-04-30T13:24:31.713Z,3.97
2023-04-30T13:27:00.591Z,4.10
2023-04-30T13:29:28.790Z,3.67
2023-04-30T13:31:57.083Z,3.73
2023-04-30T13:34:25.510Z,3.87
2023-04-30T13:36:55.147Z,4.53
2023-04-30T13:39:23.450Z,3.57
2023-04-30T13:41:51.939Z,4.10
2023-04-30T13:44:20.024Z,3.80
2023-04-30T13:46:48.228Z,3.80
2023-04-30T13:49:16.773Z,3.60
2023-04-30T13:51:44.894Z,3.30
2023-04-30T13:54:14.459Z,3.63
2023-04-30T13:56:42.987Z,3.70
2023-04-30T13:59:11.896Z,3.50
2023-04-30T14:01:40.709Z,3.50
2023-04-30T14:04:09.620Z,3.73
2023-04-30T14:06:38.693Z,3.60
2023-04-30T14:09:07.050Z,3.80
2023-04-30T14:11:36.770Z,3.87
2023-04-30T14:14:05.048Z,3.97
2023-04-30T14:16:33.563Z,3.37
2023-04-30T14:19:01.950Z,3.40
2023-04-30T14:21:30.214Z,3.10
2023-04-30T14:23:58.402Z,3.13
2023-04-30T14:26:26.870Z,3.30
2023-04-30T14:28:57.143Z,3.30
2023-04-30T14:31:25.273Z,2.90
2023-04-30T14:33:53.593Z,2.97
2023-04-30T14:36:22.255Z,2.70
2023-04-30T14:38:50.422Z,2.60
2023-04-30T14:41:18.828Z,3.03
2023-04-30T14:43:47.182Z,2.20
2023-04-30T14:46:17.030Z,2.30
2023-04-30T14:48:45.422Z,2.50
2023-04-30T14:51:13.565Z,2.93
2023-04-30T14:53:41.768Z,2.50
2023-04-30T14:56:10.261Z,2.40
2023-04-30T14:58:38.425Z,2.30
2023-04-30T15:01:06.867Z,2.50
2023-04-30T15:03:37.002Z,2.43
2023-04-30T15:06:05.414Z,2.23
2023-04-30T15:08:33.944Z,2.20
2023-04-30T15:11:02.132Z,2.33
2023-04-30T15:13:30.274Z,2.37
2023-04-30T15:15:58.617Z,2.43
2023-04-30T15:18:26.949Z,2.50
2023-04-30T15:20:56.481Z,2.70
2023-04-30T15:23:24.936Z,2.33
2023-04-30T15:25:54.055Z,3.10
2023-04-30T15:28:24.463Z,2.70
2023-04-30T15:30:53.208Z,2.40
2023-04-30T15:33:21.675Z,2.53
2023-04-30T15:35:49.859Z,2.40
2023-04-30T15:38:19.546Z,2.43
2023-04-30T15:40:47.872Z,2.60
2023-04-30T15:43:16.553Z,2.10
2023-04-30T15:45:45.994Z,1.90
2023-04-30T15:48:14.290Z,1.80
2023-04-30T15:50:43.061Z,2.00
2023-04-30T15:53:11.483Z,2.53
2023-04-30T15:55:41.622Z,2.50
2023-04-30T15:58:09.821Z,2.13
2023-04-30T16:00:38.416Z,1.70
2023-04-30T16:03:06.746Z,2.73
2023-04-30T16:05:38.852Z,2.20
2023-04-30T16:08:08.341Z,2.20
2023-04-30T16:10:36.932Z,2.10
2023-04-30T16:13:06.631Z,2.47
2023-04-30T16:15:35.203Z,2.10
2023-04-30T16:18:06.656Z,2.20
2023-04-30T16:20:35.149Z,2.50
2023-04-30T16:23:05.007Z,2.27
2023-04-30T16:25:33.549Z,2.10
2023-04-30T16:28:02.335Z,2.10
2023-04-30T16:30:32.101Z,2.47
2023-04-30T16:33:00.493Z,2.50
2023-04-30T16:35:28.776Z,2.40
2023-04-30T16:37:57.251Z,2.50
2023-04-30T16:40:25.404Z,2.20
2023-04-30T16:42:53.640Z,2.43
2023-04-30T16:45:22.403Z,3.17
2023-04-30T16:47:51.920Z,3.60
2023-04-30T16:50:20.214Z,4.70
2023-04-30T16:52:48.454Z,2.40
2023-04-30T16:55:16.647Z,2.10
2023-04-30T16:57:44.941Z,2.17
2023-04-30T17:00:14.746Z,2.50
2023-04-30T17:02:45.489Z,2.13
2023-04-30T17:05:16.256Z,1.93
2023-04-30T17:07:44.610Z,1.90
2023-04-30T17:10:13.329Z,1.90
2023-04-30T17:12:41.874Z,2.30
2023-04-30T17:15:10.682Z,1.90
2023-04-30T17:17:38.883Z,1.93
2023-04-30T17:20:08.296Z,2.20
2023-04-30T17:22:38.317Z,2.07
2023-04-30T17:25:06.959Z,2.30
2023-04-30T17:27:35.926Z,2.27
2023-04-30T17:30:05.036Z,2.40
2023-04-30T17:32:33.311Z,2.37
2023-04-30T17:35:02.853Z,2.00
2023-04-30T17:37:31.024Z,2.17
2023-04-30T17:40:00.853Z,1.87
2023-04-30T17:42:30.769Z,2.10
2023-04-30T17:44:59.050Z,1.90
2023-04-30T17:47:27.837Z,2.20
2023-04-30T17:49:57.539Z,2.03
2023-04-30T17:52:26.199Z,1.87
2023-04-30T17:54:55.244Z,1.97
2023-04-30T17:57:25.237Z,1.73
2023-04-30T17:59:53.488Z,2.27
2023-04-30T18:02:21.869Z,1.90
2023-04-30T18:04:50.345Z,1.73
2023-04-30T18:07:18.667Z,2.10
2023-04-30T18:09:47.505Z,1.90
2023-04-30T18:12:16.276Z,2.00
2023-04-30T18:14:45.884Z,1.93
2023-04-30T18:17:15.325Z,1.90
2023-04-30T18:19:46.413Z,2.07
2023-04-30T18:22:14.680Z,2.40
2023-04-30T18:24:43.323Z,2.20
2023-04-30T18:27:11.756Z,2.07
2023-04-30T18:29:39.916Z,2.27
2023-04-30T18:32:09.748Z,1.70
2023-04-30T18:34:38.142Z,1.80
2023-04-30T18:37:06.421Z,2.07
2023-04-30T18:39:34.778Z,1.90
2023-04-30T18:42:04.690Z,2.30
2023-04-30T18:44:33.211Z,2.03
2023-04-30T18:47:01.750Z,2.10
2023-04-30T18:49:31.953Z,2.00
2023-04-30T18:52:01.180Z,2.10
2023-04-30T18:54:29.540Z,2.00
2023-04-30T18:56:58.451Z,2.10
2023-04-30T18:59:28.776Z,1.87
2023-04-30T19:01:56.962Z,2.20
2023-04-30T19:04:25.502Z,2.27
2023-04-30T19:06:55.799Z,2.70
2023-04-30T19:09:24.483Z,2.57
2023-04-30T19:11:53.219Z,2.53
2023-04-30T19:14:21.463Z,2.40
2023-04-30T19:16:49.933Z,2.43
2023-04-30T19:19:18.274Z,2.57
2023-04-30T19:21:46.595Z,2.30
2023-04-30T19:24:16.225Z,2.50
2023-04-30T19:26:44.939Z,2.70
2023-04-30T19:29:13.212Z,2.80
2023-04-30T19:31:41.432Z,2.80
2023-04-30T19:34:09.857Z,2.70
2023-04-30T19:36:38.105Z,2.90
2023-04-30T19:39:10.409Z,3.20
2023-04-30T19:41:40.443Z,3.07
2023-04-30T19:44:10.151Z,3.10
2023-04-30T19:46:38.518Z,3.10
2023-04-30T19:49:08.201Z,3.33
2023-04-30T19:51:36.395Z,3.50
2023-04-30T19:54:05.026Z,3.50
2023-04-30T19:56:33.394Z,3.43
2023-04-30T19:59:02.974Z,3.53
2023-04-30T20:01:31.342Z,3.50
2023-04-30T20:03:59.888Z,3.70
2023-04-30T20:06:28.405Z,3.73
2023-04-30T20:08:58.776Z,4.63
2023-04-30T20:11:27.958Z,4.17
2023-04-30T20:13:56.581Z,3.70
2023-04-30T20:16:26.471Z,4.70
2023-04-30T20:18:54.978Z,4.50
2023-04-30T20:21:24.947Z,4.80
2023-04-30T20:23:53.415Z,4.90
2023-04-30T20:26:21.846Z,4.60
2023-04-30T20:28:49.976Z,4.50
2023-04-30T20:31:18.217Z,4.40
2023-04-30T20:33:48.091Z,4.57
2023-04-30T20:36:16.759Z,4.57
2023-04-30T20:38:44.986Z,4.43
2023-04-30T20:41:13.434Z,4.60
2023-04-30T20:43:41.633Z,4.30
2023-04-30T20:46:10.330Z,4.90
2023-04-30T20:48:38.573Z,4.67
2023-04-30T20:51:08.279Z,4.87
2023-04-30T20:53:36.567Z,5.50
2023-04-30T20:56:05.200Z,5.00
2023-04-30T20:58:33.414Z,5.47
2023-04-30T21:01:01.712Z,5.13
2023-04-30T21:03:30.466Z,5.30
2023-04-30T21:05:58.751Z,5.67
2023-04-30T21:08:28.558Z,6.03
2023-04-30T21:10:56.824Z,6.20
2023-04-30T21:13:25.014Z,5.80
2023-04-30T21:15:54.386Z,6.00
2023-04-30T21:18:22.760Z,5.67
2023-04-30T21:20:50.933Z,6.10
2023-04-30T21:23:19.362Z,6.43
2023-04-30T21:25:48.972Z,6.60
2023-04-30T21:28:17.247Z,6.83
2023-04-30T21:30:45.506Z,6.30
2023-04-30T21:33:13.888Z,6.50
2023-04-30T21:35:42.289Z,6.30
2023-04-30T21:38:11.768Z,6.63
2023-04-30T21:40:40.715Z,6.67
2023-04-30T21:43:10.482Z,6.73
2023-04-30T21:45:38.704Z,6.63
2023-04-30T21:48:07.454Z,7.00
2023-04-30T21:50:36.222Z,6.50
2023-04-30T21:53:05.098Z,6.40
2023-04-30T21:55:33.622Z,6.77
2023-04-30T21:58:01.840Z,7.17
2023-04-30T22:00:31.604Z,6.37
2023-04-30T22:03:00.211Z,7.20
2023-04-30T22:05:28.493Z,6.50
2023-04-30T22:07:56.813Z,6.70
2023-04-30T22:10:25.189Z,6.63
2023-04-30T22:12:53.383Z,6.63
2023-04-30T22:15:21.601Z,6.70
2023-04-30T22:17:51.395Z,6.47
2023-04-30T22:20:19.750Z,6.63
2023-04-30T22:22:47.943Z,6.10
2023-04-30T22:25:17.745Z,6.53
2023-04-30T22:27:45.945Z,7.03
2023-04-30T22:30:14.355Z,6.73
2023-04-30T22:32:42.734Z,6.90
2023-04-30T22:35:14.302Z,6.80
2023-04-30T22:37:42.558Z,7.00
2023-04-30T22:40:11.867Z,6.60
2023-04-30T22:42:40.931Z,6.17
2023-04-30T22:45:11.031Z,7.03
2023-04-30T22:47:39.782Z,6.83
2023-04-30T22:50:09.290Z,6.90
2023-04-30T22:52:39.108Z,6.83
2023-04-30T22:55:08.785Z,7.00
2023-04-30T22:57:36.884Z,7.37
2023-04-30T23:00:05.472Z,7.37
2023-04-30T23:02:34.111Z,7.90
2023-04-30T23:05:03.266Z,7.40
2023-04-30T23:07:32.109Z,8.00
2023-04-30T23:10:01.884Z,7.70
2023-04-30T23:12:30.106Z,8.73
2023-04-30T23:14:58.478Z,8.83
2023-04-30T23:17:27.019Z,9.13
2023-04-30T23:19:55.665Z,8.60
2023-04-30T23:22:24.324Z,8.83
2023-04-30T23:24:52.609Z,8.80
2023-04-30T23:27:22.170Z,9.13
2023-04-30T23:29:50.404Z,9.30
2023-04-30T23:32:18.590Z,8.20
2023-04-30T23:34:47.732Z,9.20
2023-04-30T23:37:16.669Z,8.93
2023-04-30T23:39:44.819Z,8.37
2023-04-30T23:42:13.539Z,8.23
2023-04-30T23:44:43.412Z,8.27
2023-04-30T23:47:12.494Z,7.90
2023-04-30T23:49:40.764Z,7.90
2023-04-30T23:52:09.894Z,8.57
2023-04-30T23:54:37.985Z,8.53
2023-04-30T23:57:06.135Z,9.17
2023-04-30T23:59:34.412Z,9.63
